CCM62PM LFKJ-LFML
Flight info
| Callsign | CCM62PM |
|---|---|
| Flight time | 0h 47m |
| Altitude | 24000 |
| Route | TINOT |
| Aircraft | A320/M-SDE3FGHIRWY/LB1 |
Departure
| Time | 2026-05-04 19:21 |
|---|---|
| Airport | Ajaccio Napoléon Bonaparte airport (LFKJ) |
Arrival
| Time | 2026-05-04 20:09 |
|---|---|
| Airport | Marseille Provence Airport (LFML) |
| Time | Latitude | Longitude | Altitude | Speed | Heading |
|---|---|---|---|---|---|
| 2026-05-04 19:15 | 41.91913 | 8.79537 | 21 ft | 0 kts | 345° |
| 2026-05-04 19:17 | 41.91917 | 8.79547 | 22 ft | 3 kts | 66° |
| 2026-05-04 19:17 | 41.91913 | 8.79565 | 21 ft | 3 kts | 112° |
| 2026-05-04 19:17 | 41.91934 | 8.79626 | 22 ft | 13 kts | 32° |
| 2026-05-04 19:18 | 41.92029 | 8.79686 | 21 ft | 14 kts | 25° |
| 2026-05-04 19:18 | 41.92103 | 8.79733 | 21 ft | 10 kts | 25° |
| 2026-05-04 19:18 | 41.92191 | 8.79788 | 21 ft | 17 kts | 25° |
| 2026-05-04 19:18 | 41.92287 | 8.79849 | 23 ft | 13 kts | 25° |
| 2026-05-04 19:19 | 41.92384 | 8.79908 | 21 ft | 16 kts | 25° |
| 2026-05-04 19:19 | 41.92487 | 8.79972 | 21 ft | 18 kts | 25° |
| 2026-05-04 19:19 | 41.92604 | 8.80044 | 21 ft | 19 kts | 25° |
| 2026-05-04 19:19 | 41.92719 | 8.80118 | 21 ft | 20 kts | 26° |
| 2026-05-04 19:20 | 41.92828 | 8.80225 | 22 ft | 19 kts | 44° |
| 2026-05-04 19:20 | 41.92921 | 8.80350 | 21 ft | 18 kts | 45° |
| 2026-05-04 19:20 | 41.92960 | 8.80492 | 23 ft | 15 kts | 107° |
| 2026-05-04 19:20 | 41.92894 | 8.80558 | 26 ft | 10 kts | 199° |
| 2026-05-04 19:21 | 41.92804 | 8.80500 | 26 ft | 34 kts | 205° |
| 2026-05-04 19:21 | 41.92350 | 8.80218 | 24 ft | 105 kts | 205° |
| 2026-05-04 19:21 | 41.91513 | 8.79698 | 89 ft | 150 kts | 203° |
| 2026-05-04 19:21 | 41.90616 | 8.79125 | 683 ft | 142 kts | 204° |
| 2026-05-04 19:22 | 41.89739 | 8.78538 | 1117 ft | 145 kts | 211° |
| 2026-05-04 19:22 | 41.88856 | 8.77721 | 1314 ft | 165 kts | 214° |
| 2026-05-04 19:22 | 41.87845 | 8.76780 | 1379 ft | 191 kts | 214° |
| 2026-05-04 19:22 | 41.86691 | 8.75707 | 1513 ft | 213 kts | 214° |
| 2026-05-04 19:23 | 41.85408 | 8.74516 | 1666 ft | 236 kts | 213° |
| 2026-05-04 19:23 | 41.84006 | 8.73220 | 1998 ft | 251 kts | 213° |
| 2026-05-04 19:23 | 41.82554 | 8.71879 | 2569 ft | 254 kts | 213° |
| 2026-05-04 19:23 | 41.81112 | 8.70544 | 3644 ft | 249 kts | 213° |
| 2026-05-04 19:24 | 41.79694 | 8.69234 | 4710 ft | 248 kts | 213° |
| 2026-05-04 19:24 | 41.78258 | 8.67929 | 5633 ft | 252 kts | 213° |
| 2026-05-04 19:24 | 41.76790 | 8.66609 | 6480 ft | 257 kts | 213° |
| 2026-05-04 19:24 | 41.75288 | 8.65263 | 7292 ft | 262 kts | 213° |
| 2026-05-04 19:25 | 41.73760 | 8.63896 | 8126 ft | 266 kts | 214° |
| 2026-05-04 19:25 | 41.72387 | 8.62240 | 8968 ft | 270 kts | 235° |
| 2026-05-04 19:25 | 41.71733 | 8.59887 | 9800 ft | 276 kts | 263° |
| 2026-05-04 19:25 | 41.72034 | 8.57366 | 10553 ft | 287 kts | 289° |
| 2026-05-04 19:26 | 41.72988 | 8.54841 | 10838 ft | 313 kts | 295° |
| 2026-05-04 19:26 | 41.74077 | 8.52241 | 11043 ft | 336 kts | 296° |
| 2026-05-04 19:26 | 41.75295 | 8.49426 | 11452 ft | 350 kts | 297° |
| 2026-05-04 19:26 | 41.76532 | 8.46585 | 12122 ft | 355 kts | 297° |
| 2026-05-04 19:27 | 41.77759 | 8.43743 | 12803 ft | 359 kts | 296° |
| 2026-05-04 19:27 | 41.79003 | 8.40829 | 13522 ft | 362 kts | 296° |
| 2026-05-04 19:27 | 41.80249 | 8.37880 | 14183 ft | 365 kts | 296° |
| 2026-05-04 19:27 | 41.81501 | 8.34896 | 14795 ft | 369 kts | 296° |
| 2026-05-04 19:28 | 41.82762 | 8.31881 | 15395 ft | 373 kts | 296° |
| 2026-05-04 19:28 | 41.83947 | 8.28779 | 15983 ft | 375 kts | 289° |
| 2026-05-04 19:28 | 41.84935 | 8.25530 | 16586 ft | 378 kts | 289° |
| 2026-05-04 19:28 | 41.85928 | 8.22252 | 17195 ft | 381 kts | 289° |
| 2026-05-04 19:29 | 41.86933 | 8.18942 | 17785 ft | 385 kts | 289° |
| 2026-05-04 19:29 | 41.87950 | 8.15601 | 18373 ft | 389 kts | 289° |
| 2026-05-04 19:29 | 41.88977 | 8.12232 | 18901 ft | 392 kts | 289° |
| 2026-05-04 19:29 | 41.90011 | 8.08834 | 19462 ft | 394 kts | 289° |
| 2026-05-04 19:30 | 41.91049 | 8.05417 | 20003 ft | 396 kts | 289° |
| 2026-05-04 19:30 | 41.92091 | 8.01981 | 20561 ft | 399 kts | 289° |
| 2026-05-04 19:30 | 41.93138 | 7.98515 | 21032 ft | 402 kts | 289° |
| 2026-05-04 19:30 | 41.94193 | 7.95017 | 21546 ft | 405 kts | 289° |
| 2026-05-04 19:31 | 41.95252 | 7.91500 | 22051 ft | 407 kts | 289° |
| 2026-05-04 19:31 | 41.96314 | 7.87972 | 22540 ft | 409 kts | 289° |
| 2026-05-04 19:31 | 41.97367 | 7.84470 | 23023 ft | 411 kts | 289° |
| 2026-05-04 19:31 | 41.98439 | 7.80901 | 23491 ft | 413 kts | 289° |
| 2026-05-04 19:32 | 41.99515 | 7.77318 | 23870 ft | 414 kts | 288° |
| 2026-05-04 19:32 | 42.00594 | 7.73723 | 23987 ft | 415 kts | 288° |
| 2026-05-04 19:32 | 42.01686 | 7.70075 | 24019 ft | 425 kts | 288° |
| 2026-05-04 19:32 | 42.02793 | 7.66360 | 24021 ft | 429 kts | 288° |
| 2026-05-04 19:33 | 42.03903 | 7.62636 | 24020 ft | 430 kts | 288° |
| 2026-05-04 19:33 | 42.05016 | 7.58899 | 24026 ft | 430 kts | 288° |
| 2026-05-04 19:33 | 42.06128 | 7.55158 | 24016 ft | 430 kts | 288° |
| 2026-05-04 19:33 | 42.07237 | 7.51422 | 24016 ft | 430 kts | 288° |
| 2026-05-04 19:34 | 42.08346 | 7.47682 | 24015 ft | 430 kts | 288° |
| 2026-05-04 19:34 | 42.09456 | 7.43943 | 24016 ft | 430 kts | 288° |
| 2026-05-04 19:34 | 42.10567 | 7.40195 | 24015 ft | 430 kts | 288° |
| 2026-05-04 19:34 | 42.11677 | 7.36450 | 24015 ft | 430 kts | 288° |
| 2026-05-04 19:35 | 42.12783 | 7.32712 | 24014 ft | 430 kts | 288° |
| 2026-05-04 19:35 | 42.13885 | 7.28972 | 24012 ft | 430 kts | 288° |
| 2026-05-04 19:35 | 42.14988 | 7.25222 | 24011 ft | 430 kts | 288° |
| 2026-05-04 19:35 | 42.16086 | 7.21479 | 24009 ft | 430 kts | 288° |
| 2026-05-04 19:36 | 42.17184 | 7.17733 | 24011 ft | 430 kts | 288° |
| 2026-05-04 19:36 | 42.18283 | 7.13978 | 24006 ft | 430 kts | 288° |
| 2026-05-04 19:36 | 42.19381 | 7.10219 | 24009 ft | 430 kts | 288° |
| 2026-05-04 19:36 | 42.20474 | 7.06468 | 24000 ft | 430 kts | 288° |
| 2026-05-04 19:37 | 42.21554 | 7.02751 | 24002 ft | 431 kts | 288° |
| 2026-05-04 19:37 | 42.22653 | 6.98971 | 23994 ft | 431 kts | 288° |
| 2026-05-04 19:37 | 42.23750 | 6.95198 | 23992 ft | 431 kts | 288° |
| 2026-05-04 19:37 | 42.24847 | 6.91428 | 23995 ft | 431 kts | 288° |
| 2026-05-04 19:38 | 42.25940 | 6.87663 | 23992 ft | 431 kts | 288° |
| 2026-05-04 19:38 | 42.27032 | 6.83889 | 24006 ft | 431 kts | 288° |
| 2026-05-04 19:38 | 42.28122 | 6.80110 | 24002 ft | 432 kts | 288° |
| 2026-05-04 19:38 | 42.29213 | 6.76326 | 23998 ft | 432 kts | 288° |
| 2026-05-04 19:39 | 42.30301 | 6.72546 | 23996 ft | 432 kts | 288° |
| 2026-05-04 19:39 | 42.31022 | 6.70043 | 23995 ft | 432 kts | 288° |
| 2026-05-04 19:39 | 42.32113 | 6.66251 | 23992 ft | 432 kts | 288° |
| 2026-05-04 19:39 | 42.33199 | 6.62466 | 23991 ft | 432 kts | 288° |
| 2026-05-04 19:40 | 42.34286 | 6.58678 | 23994 ft | 432 kts | 288° |
| 2026-05-04 19:40 | 42.35370 | 6.54884 | 23994 ft | 432 kts | 288° |
| 2026-05-04 19:40 | 42.36453 | 6.51091 | 23988 ft | 432 kts | 288° |
| 2026-05-04 19:40 | 42.37535 | 6.47294 | 23988 ft | 432 kts | 288° |
| 2026-05-04 19:41 | 42.38602 | 6.43549 | 24004 ft | 432 kts | 288° |
| 2026-05-04 19:41 | 42.39686 | 6.39745 | 24002 ft | 432 kts | 288° |
| 2026-05-04 19:41 | 42.40766 | 6.35949 | 23999 ft | 432 kts | 288° |
| 2026-05-04 19:41 | 42.41842 | 6.32156 | 23997 ft | 432 kts | 288° |
| 2026-05-04 19:42 | 42.42916 | 6.28353 | 23995 ft | 432 kts | 287° |
| 2026-05-04 19:42 | 42.43987 | 6.24550 | 23994 ft | 432 kts | 287° |
| 2026-05-04 19:42 | 42.45058 | 6.20751 | 23995 ft | 432 kts | 287° |
| 2026-05-04 19:42 | 42.46129 | 6.16954 | 23990 ft | 432 kts | 288° |
| 2026-05-04 19:43 | 42.47205 | 6.13146 | 23986 ft | 432 kts | 288° |
| 2026-05-04 19:43 | 42.48276 | 6.09344 | 23986 ft | 432 kts | 287° |
| 2026-05-04 19:43 | 42.49343 | 6.05534 | 23992 ft | 432 kts | 287° |
| 2026-05-04 19:43 | 42.50395 | 6.01767 | 23979 ft | 432 kts | 287° |
| 2026-05-04 19:44 | 42.51461 | 5.97947 | 23981 ft | 432 kts | 287° |
| 2026-05-04 19:44 | 42.52523 | 5.94136 | 23978 ft | 432 kts | 287° |
| 2026-05-04 19:44 | 42.53587 | 5.90320 | 23978 ft | 432 kts | 287° |
| 2026-05-04 19:44 | 42.54646 | 5.86518 | 23628 ft | 428 kts | 287° |
| 2026-05-04 19:45 | 42.55696 | 5.82742 | 22823 ft | 425 kts | 287° |
| 2026-05-04 19:45 | 42.56734 | 5.79005 | 22066 ft | 421 kts | 287° |
| 2026-05-04 19:45 | 42.57752 | 5.75337 | 21353 ft | 418 kts | 287° |
| 2026-05-04 19:45 | 42.58774 | 5.71652 | 20664 ft | 415 kts | 287° |
| 2026-05-04 19:46 | 42.59789 | 5.67987 | 20001 ft | 412 kts | 287° |
| 2026-05-04 19:46 | 42.60795 | 5.64349 | 19355 ft | 410 kts | 287° |
| 2026-05-04 19:46 | 42.61792 | 5.60736 | 18741 ft | 407 kts | 287° |
| 2026-05-04 19:46 | 42.62789 | 5.57150 | 18133 ft | 405 kts | 289° |
| 2026-05-04 19:47 | 42.64195 | 5.53830 | 17507 ft | 409 kts | 305° |
| 2026-05-04 19:47 | 42.66132 | 5.50994 | 16926 ft | 408 kts | 310° |
| 2026-05-04 19:47 | 42.68088 | 5.48281 | 16355 ft | 405 kts | 310° |
| 2026-05-04 19:47 | 42.70065 | 5.45565 | 15802 ft | 401 kts | 310° |
| 2026-05-04 19:48 | 42.72026 | 5.42877 | 15253 ft | 398 kts | 311° |
| 2026-05-04 19:48 | 42.73960 | 5.40219 | 14712 ft | 394 kts | 310° |
| 2026-05-04 19:48 | 42.75879 | 5.37572 | 14175 ft | 391 kts | 310° |
| 2026-05-04 19:48 | 42.77779 | 5.34948 | 13624 ft | 387 kts | 310° |
| 2026-05-04 19:49 | 42.79660 | 5.32348 | 13022 ft | 384 kts | 310° |
| 2026-05-04 19:49 | 42.81524 | 5.29762 | 12384 ft | 381 kts | 310° |
| 2026-05-04 19:49 | 42.83373 | 5.27186 | 11764 ft | 378 kts | 310° |
| 2026-05-04 19:49 | 42.85207 | 5.24633 | 11189 ft | 376 kts | 310° |
| 2026-05-04 19:50 | 42.87038 | 5.22083 | 10980 ft | 377 kts | 310° |
| 2026-05-04 19:50 | 42.88849 | 5.19558 | 10974 ft | 377 kts | 310° |
| 2026-05-04 19:50 | 42.90684 | 5.17001 | 10978 ft | 377 kts | 311° |
| 2026-05-04 19:50 | 42.92606 | 5.14492 | 10971 ft | 379 kts | 319° |
| 2026-05-04 19:51 | 42.94904 | 5.12768 | 10972 ft | 389 kts | 338° |
| 2026-05-04 19:51 | 42.97584 | 5.12083 | 10976 ft | 395 kts | 352° |
| 2026-05-04 19:51 | 43.00329 | 5.11756 | 10971 ft | 395 kts | 353° |
| 2026-05-04 19:51 | 43.03069 | 5.11435 | 10973 ft | 393 kts | 353° |
| 2026-05-04 19:52 | 43.05798 | 5.11117 | 10974 ft | 394 kts | 352° |
| 2026-05-04 19:52 | 43.08540 | 5.10815 | 10972 ft | 395 kts | 353° |
| 2026-05-04 19:52 | 43.11260 | 5.10506 | 10578 ft | 389 kts | 353° |
| 2026-05-04 19:52 | 43.13902 | 5.10199 | 10237 ft | 379 kts | 353° |
| 2026-05-04 19:53 | 43.16475 | 5.09914 | 10120 ft | 363 kts | 353° |
| 2026-05-04 19:53 | 43.18938 | 5.09638 | 9997 ft | 348 kts | 353° |
| 2026-05-04 19:53 | 43.21304 | 5.09360 | 9876 ft | 334 kts | 353° |
| 2026-05-04 19:53 | 43.23587 | 5.09111 | 9747 ft | 323 kts | 353° |
| 2026-05-04 19:54 | 43.25794 | 5.08879 | 9526 ft | 314 kts | 353° |
| 2026-05-04 19:54 | 43.27954 | 5.08642 | 9212 ft | 309 kts | 353° |
| 2026-05-04 19:54 | 43.30097 | 5.08399 | 8807 ft | 308 kts | 353° |
| 2026-05-04 19:54 | 43.32214 | 5.08166 | 8354 ft | 310 kts | 354° |
| 2026-05-04 19:55 | 43.34339 | 5.07891 | 8050 ft | 304 kts | 353° |
| 2026-05-04 19:55 | 43.36430 | 5.07594 | 7712 ft | 300 kts | 353° |
| 2026-05-04 19:55 | 43.38501 | 5.07288 | 7325 ft | 299 kts | 352° |
| 2026-05-04 19:55 | 43.40454 | 5.06469 | 6953 ft | 292 kts | 327° |
| 2026-05-04 19:56 | 43.42095 | 5.04859 | 6547 ft | 289 kts | 319° |
| 2026-05-04 19:56 | 43.43654 | 5.03136 | 6133 ft | 287 kts | 318° |
| 2026-05-04 19:56 | 43.45198 | 5.01396 | 5734 ft | 285 kts | 318° |
| 2026-05-04 19:56 | 43.46721 | 4.99660 | 5336 ft | 283 kts | 317° |
| 2026-05-04 19:57 | 43.48159 | 4.97819 | 5036 ft | 281 kts | 313° |
| 2026-05-04 19:57 | 43.49567 | 4.95919 | 5004 ft | 284 kts | 313° |
| 2026-05-04 19:57 | 43.50961 | 4.94038 | 5011 ft | 285 kts | 313° |
| 2026-05-04 19:57 | 43.52407 | 4.92133 | 5006 ft | 289 kts | 313° |
| 2026-05-04 19:58 | 43.53868 | 4.90226 | 5010 ft | 288 kts | 313° |
| 2026-05-04 19:58 | 43.55287 | 4.88327 | 5002 ft | 275 kts | 313° |
| 2026-05-04 19:58 | 43.56614 | 4.86552 | 5006 ft | 257 kts | 313° |
| 2026-05-04 19:58 | 43.57860 | 4.84897 | 5006 ft | 241 kts | 313° |
| 2026-05-04 19:59 | 43.59030 | 4.83354 | 5014 ft | 224 kts | 313° |
| 2026-05-04 19:59 | 43.60133 | 4.81913 | 5022 ft | 214 kts | 313° |
| 2026-05-04 19:59 | 43.61290 | 4.80639 | 4869 ft | 214 kts | 333° |
| 2026-05-04 19:59 | 43.62739 | 4.80349 | 4537 ft | 212 kts | 13° |
| 2026-05-04 20:00 | 43.63986 | 4.81236 | 4191 ft | 201 kts | 54° |
| 2026-05-04 20:00 | 43.64524 | 4.82861 | 4010 ft | 179 kts | 96° |
| 2026-05-04 20:00 | 43.64240 | 4.84469 | 4014 ft | 171 kts | 119° |
| 2026-05-04 20:00 | 43.63817 | 4.86004 | 4008 ft | 175 kts | 104° |
| 2026-05-04 20:01 | 43.63798 | 4.87703 | 4009 ft | 178 kts | 94° |
| 2026-05-04 20:01 | 43.63880 | 4.89425 | 4012 ft | 179 kts | 93° |
| 2026-05-04 20:01 | 43.63939 | 4.91129 | 4005 ft | 175 kts | 102° |
| 2026-05-04 20:01 | 43.63615 | 4.92700 | 4007 ft | 169 kts | 123° |
| 2026-05-04 20:02 | 43.62907 | 4.93964 | 4011 ft | 167 kts | 137° |
| 2026-05-04 20:02 | 43.62099 | 4.95123 | 4010 ft | 167 kts | 137° |
| 2026-05-04 20:02 | 43.61306 | 4.96264 | 4003 ft | 167 kts | 136° |
| 2026-05-04 20:02 | 43.60503 | 4.97419 | 4007 ft | 166 kts | 136° |
| 2026-05-04 20:03 | 43.59703 | 4.98568 | 4008 ft | 166 kts | 136° |
| 2026-05-04 20:03 | 43.58901 | 4.99720 | 3938 ft | 166 kts | 135° |
| 2026-05-04 20:03 | 43.58101 | 5.00867 | 3772 ft | 165 kts | 135° |
| 2026-05-04 20:03 | 43.57310 | 5.02003 | 3574 ft | 163 kts | 135° |
| 2026-05-04 20:04 | 43.56525 | 5.03128 | 3366 ft | 161 kts | 135° |
| 2026-05-04 20:04 | 43.55752 | 5.04236 | 3154 ft | 159 kts | 134° |
| 2026-05-04 20:04 | 43.54987 | 5.05333 | 2942 ft | 158 kts | 133° |
| 2026-05-04 20:04 | 43.54228 | 5.06420 | 2726 ft | 157 kts | 133° |
| 2026-05-04 20:05 | 43.53495 | 5.07469 | 2517 ft | 143 kts | 131° |
| 2026-05-04 20:05 | 43.52836 | 5.08409 | 2359 ft | 133 kts | 130° |
| 2026-05-04 20:05 | 43.52214 | 5.09299 | 2165 ft | 124 kts | 130° |
| 2026-05-04 20:05 | 43.51602 | 5.10177 | 2007 ft | 128 kts | 131° |
| 2026-05-04 20:06 | 43.50983 | 5.11063 | 1827 ft | 128 kts | 131° |
| 2026-05-04 20:06 | 43.50363 | 5.11949 | 1654 ft | 128 kts | 130° |
| 2026-05-04 20:06 | 43.49744 | 5.12833 | 1479 ft | 128 kts | 130° |
| 2026-05-04 20:06 | 43.49125 | 5.13719 | 1303 ft | 128 kts | 131° |
| 2026-05-04 20:07 | 43.48509 | 5.14597 | 1126 ft | 127 kts | 131° |
| 2026-05-04 20:07 | 43.47892 | 5.15479 | 959 ft | 128 kts | 132° |
| 2026-05-04 20:07 | 43.47278 | 5.16355 | 785 ft | 129 kts | 131° |
| 2026-05-04 20:07 | 43.46659 | 5.17238 | 620 ft | 126 kts | 129° |
| 2026-05-04 20:08 | 43.46044 | 5.18119 | 418 ft | 126 kts | 128° |
| 2026-05-04 20:08 | 43.45435 | 5.18982 | 228 ft | 125 kts | 128° |
| 2026-05-04 20:08 | 43.44824 | 5.19853 | 64 ft | 126 kts | 127° |
| 2026-05-04 20:08 | 43.44237 | 5.20697 | 19 ft | 110 kts | 133° |
| 2026-05-04 20:09 | 43.43818 | 5.21291 | 34 ft | 63 kts | 134° |
| 2026-05-04 20:09 | 43.43554 | 5.21668 | 42 ft | 48 kts | 134° |
| 2026-05-04 20:09 | 43.43365 | 5.21944 | 49 ft | 26 kts | 120° |
| 2026-05-04 20:09 | 43.43332 | 5.22137 | 52 ft | 15 kts | 91° |
| 2026-05-04 20:10 | 43.43356 | 5.22260 | 54 ft | 13 kts | 45° |
| 2026-05-04 20:10 | 43.43445 | 5.22263 | 50 ft | 14 kts | 334° |
| 2026-05-04 20:10 | 43.43527 | 5.22197 | 50 ft | 13 kts | 329° |
| 2026-05-04 20:10 | 43.43605 | 5.22135 | 47 ft | 12 kts | 330° |
| 2026-05-04 20:11 | 43.43678 | 5.22077 | 44 ft | 12 kts | 330° |
| 2026-05-04 20:11 | 43.43747 | 5.22025 | 43 ft | 11 kts | 345° |
| 2026-05-04 20:11 | 43.43809 | 5.22063 | 42 ft | 10 kts | 45° |
| 2026-05-04 20:11 | 43.43861 | 5.22137 | 43 ft | 11 kts | 56° |
| 2026-05-04 20:12 | 43.43822 | 5.22215 | 43 ft | 11 kts | 161° |
| 2026-05-04 20:12 | 43.43753 | 5.22244 | 43 ft | 10 kts | 155° |
| 2026-05-04 20:12 | 43.43738 | 5.22354 | 48 ft | 13 kts | 73° |
| 2026-05-04 20:12 | 43.43762 | 5.22470 | 49 ft | 12 kts | 74° |
| 2026-05-04 20:13 | 43.43813 | 5.22541 | 49 ft | 11 kts | 27° |
| 2026-05-04 20:13 | 43.43883 | 5.22541 | 47 ft | 5 kts | 320° |
| 2026-05-04 20:13 | 43.43884 | 5.22504 | 47 ft | 4 kts | 267° |
| 2026-05-04 20:13 | 43.43882 | 5.22467 | 47 ft | 3 kts | 266° |
| 2026-05-04 20:14 | 43.43882 | 5.22463 | 47 ft | 0 kts | 265° |